Time;durP1;ratioP1;P1;durP2;ratioP2;P2;SDS_P1;SDS_P2;PMS_P1;PMS_P2;Temp;Humidity;BMP_temperature;BMP_pressure;BME280_temperature;BME280_humidity;BME280_pressure;Samples;Min_cycle;Max_cycle;Signal;HPM_P1;HPM_P2
2023/06/05 00:02:06;;;;;;;4.00;3.70;;;15.90;76.80;;;;;;4970923;28;20227;-68
2023/06/05 00:04:35;;;;;;;4.93;3.50;;;16.00;75.10;;;;;;4969462;28;20176;-69
2023/06/05 00:07:01;;;;;;;3.30;3.00;;;15.90;79.60;;;;;;4969529;28;20266;-69
2023/06/05 00:09:27;;;;;;;4.70;3.40;;;15.80;79.00;;;;;;4972967;28;20538;-68
2023/06/05 00:11:52;;;;;;;5.13;3.13;;;15.70;79.30;;;;;;4973153;28;20180;-68
2023/06/05 00:14:18;;;;;;;3.30;3.00;;;15.80;80.80;;;;;;4972659;28;20179;-68
2023/06/05 00:16:43;;;;;;;3.63;3.30;;;15.70;82.60;;;;;;4969409;28;20208;-68
2023/06/05 00:19:09;;;;;;;3.97;3.57;;;15.60;85.70;;;;;;4969225;28;20299;-68
2023/06/05 00:21:34;;;;;;;4.83;3.80;;;15.60;90.60;;;;;;4972086;28;20195;-68
2023/06/05 00:24:00;;;;;;;3.67;3.37;;;15.50;90.80;;;;;;4968559;28;20230;-68
2023/06/05 00:26:26;;;;;;;5.87;4.10;;;15.40;92.90;;;;;;4971770;28;20189;-68
2023/06/05 00:28:51;;;;;;;4.50;3.50;;;15.30;92.90;;;;;;4972659;28;20685;-68
2023/06/05 00:31:21;;;;;;;3.50;3.20;;;15.30;93.00;;;;;;4972374;28;20669;-68
2023/06/05 00:33:48;;;;;;;3.80;3.00;;;15.30;91.90;;;;;;4971174;28;20528;-68
2023/06/05 00:36:13;;;;;;;3.90;3.50;;;15.30;91.40;;;;;;4972490;28;20435;-68
2023/06/05 00:38:39;;;;;;;4.53;3.30;;;15.40;93.40;;;;;;4952562;28;20521;-68
2023/06/05 00:41:05;;;;;;;3.50;3.20;;;15.40;91.90;;;;;;4971196;28;20540;-68
2023/06/05 00:43:30;;;;;;;3.63;3.33;;;15.40;91.80;;;;;;4971435;28;20665;-68
2023/06/05 00:46:02;;;;;;;3.60;3.27;;;15.40;92.30;;;;;;4965738;28;20195;-68
2023/06/05 00:48:28;;;;;;;5.27;4.50;;;15.40;92.60;;;;;;4965470;28;20693;-68
2023/06/05 00:50:54;;;;;;;3.10;2.90;;;15.30;92.30;;;;;;4972330;28;20559;-68
2023/06/05 00:53:21;;;;;;;10.57;4.27;;;15.30;93.90;;;;;;4970887;28;20184;-68
2023/06/05 00:55:46;;;;;;;3.33;3.00;;;15.30;94.20;;;;;;4970227;28;20427;-69
2023/06/05 00:58:13;;;;;;;3.50;3.00;;;15.40;94.30;;;;;;4971550;28;20861;-68
2023/06/05 01:00:38;;;;;;;5.10;3.03;;;15.30;93.90;;;;;;4963832;28;20192;-68
2023/06/05 01:03:04;;;;;;;5.60;3.87;;;15.10;96.90;;;;;;4971409;28;20431;-68
2023/06/05 01:05:29;;;;;;;3.80;3.37;;;14.90;97.50;;;;;;4972785;28;20188;-68
2023/06/05 01:07:55;;;;;;;4.17;3.77;;;14.80;99.40;;;;;;4969737;28;20347;-68
2023/06/05 01:10:21;;;;;;;3.90;3.50;;;14.80;99.00;;;;;;4972194;28;20295;-68
2023/06/05 01:12:57;;;;;;;3.67;3.10;;;14.80;99.90;;;;;;4971282;28;20183;-68
2023/06/05 01:15:28;;;;;;;4.23;3.77;;;14.70;99.90;;;;;;4972691;28;20677;-68
2023/06/05 01:17:59;;;;;;;3.57;3.07;;;14.80;99.90;;;;;;4971858;28;20470;-68
2023/06/05 01:20:36;;;;;;;6.53;3.20;;;14.70;99.50;;;;;;4969498;28;20447;-68
2023/06/05 01:23:08;;;;;;;3.50;3.30;;;14.70;99.30;;;;;;4970531;28;20427;-68
2023/06/05 01:25:36;;;;;;;3.70;3.40;;;14.80;99.00;;;;;;4972623;28;20442;-68
2023/06/05 01:28:16;;;;;;;3.83;3.27;;;14.90;99.10;;;;;;4969440;28;20450;-68
2023/06/05 01:31:04;;;;;;;4.37;3.10;;;14.90;99.90;;;;;;4967577;28;20463;-68
2023/06/05 01:33:44;;;;;;;2.97;2.63;;;14.80;99.90;;;;;;4964531;28;20798;-68
2023/06/05 01:36:11;;;;;;;3.43;3.13;;;14.80;99.90;;;;;;4970417;28;20436;-68
2023/06/05 01:38:39;;;;;;;5.90;3.17;;;14.80;99.90;;;;;;4961588;28;20458;-68
2023/06/05 01:41:05;;;;;;;4.73;4.33;;;14.70;99.90;;;;;;4971631;28;20438;-68
2023/06/05 01:43:32;;;;;;;3.50;3.20;;;14.60;99.90;;;;;;4969495;28;20471;-68
2023/06/05 01:45:59;;;;;;;4.00;3.70;;;14.50;99.90;;;;;;4967924;28;20518;-68
2023/06/05 01:48:29;;;;;;;3.10;2.90;;;14.40;99.90;;;;;;4971178;28;20964;-68
2023/06/05 01:50:59;;;;;;;4.50;3.43;;;14.40;99.90;;;;;;4967190;28;20496;-68
2023/06/05 01:53:25;;;;;;;5.83;3.00;;;14.40;99.90;;;;;;4967542;28;20523;-68
2023/06/05 01:55:53;;;;;;;4.20;3.23;;;14.30;99.90;;;;;;4968472;28;20491;-68
2023/06/05 01:58:21;;;;;;;3.87;3.47;;;14.30;99.90;;;;;;4967513;28;20450;-68
2023/06/05 02:00:46;;;;;;;3.57;3.30;;;14.30;99.90;;;;;;4964840;28;20444;-68
2023/06/05 02:03:15;;;;;;;3.40;3.10;;;14.30;99.90;;;;;;4957029;28;20455;-68
2023/06/05 02:05:41;;;;;;;8.43;3.50;;;14.30;99.90;;;;;;4971742;28;20191;-68
2023/06/05 02:08:09;;;;;;;7.30;4.50;;;14.30;99.90;;;;;;4971409;28;20811;-68
2023/06/05 02:10:35;;;;;;;3.97;3.43;;;14.30;99.90;;;;;;4971412;28;20463;-68
2023/06/05 02:13:00;;;;;;;3.90;2.60;;;14.20;99.90;;;;;;4971360;28;20448;-68
2023/06/05 02:15:26;;;;;;;5.47;4.00;;;14.00;99.90;;;;;;4967059;28;20462;-68
2023/06/05 02:17:53;;;;;;;5.23;3.60;;;14.00;99.90;;;;;;4971385;28;20186;-68
2023/06/05 02:20:19;;;;;;;6.43;3.63;;;13.80;99.90;;;;;;4970038;28;20182;-68
2023/06/05 02:22:49;;;;;;;4.80;4.33;;;13.70;99.90;;;;;;4970476;28;20862;-68
2023/06/05 02:25:15;;;;;;;4.33;3.70;;;13.70;99.90;;;;;;4967316;28;20933;-70
2023/06/05 02:27:41;;;;;;;4.50;3.97;;;13.70;99.90;;;;;;4971573;28;20448;-68
2023/06/05 02:30:08;;;;;;;5.97;4.17;;;13.60;99.90;;;;;;4971498;28;20839;-70
2023/06/05 02:32:33;;;;;;;3.50;3.20;;;13.60;99.90;;;;;;4970294;28;20192;-70
2023/06/05 02:34:59;;;;;;;3.40;3.10;;;13.60;99.90;;;;;;4966898;28;20428;-70
2023/06/05 02:37:26;;;;;;;4.07;3.63;;;13.70;99.90;;;;;;4971820;28;20629;-70
2023/06/05 02:39:51;;;;;;;3.80;3.37;;;13.60;99.90;;;;;;4968273;28;20200;-68
2023/06/05 02:42:18;;;;;;;6.23;3.50;;;13.60;99.90;;;;;;4971609;28;20501;-68
2023/06/05 02:44:44;;;;;;;4.77;3.07;;;13.70;99.90;;;;;;4969769;28;20203;-70
2023/06/05 02:47:10;;;;;;;4.17;3.50;;;13.70;99.90;;;;;;4962816;28;20440;-70
2023/06/05 02:49:37;;;;;;;3.60;3.30;;;13.70;99.90;;;;;;4975171;28;20467;-71
2023/06/05 02:52:03;;;;;;;4.23;3.83;;;13.70;99.90;;;;;;4975498;28;20199;-70
2023/06/05 02:54:28;;;;;;;3.47;3.17;;;13.60;99.90;;;;;;4969315;28;20450;-70
2023/06/05 02:56:56;;;;;;;3.70;3.40;;;13.60;99.90;;;;;;4966883;28;20814;-70
2023/06/05 02:59:24;;;;;;;5.33;3.07;;;13.50;99.90;;;;;;4962871;28;20213;-70
2023/06/05 03:01:52;;;;;;;4.53;3.93;;;13.40;99.90;;;;;;4970790;28;20575;-70
2023/06/05 03:04:23;;;;;;;4.70;3.03;;;13.40;99.90;;;;;;4965107;28;20490;-70
2023/06/05 03:06:48;;;;;;;5.27;4.03;;;13.30;99.90;;;;;;4964447;28;20932;-70
2023/06/05 03:09:14;;;;;;;4.43;4.00;;;13.30;99.90;;;;;;4974992;28;20494;-70
2023/06/05 03:11:40;;;;;;;4.73;3.40;;;13.20;99.90;;;;;;4974322;28;20676;-70
2023/06/05 03:14:05;;;;;;;3.70;3.40;;;13.20;99.90;;;;;;4974837;28;20687;-70
2023/06/05 03:16:37;;;;;;;4.20;3.33;;;13.20;99.90;;;;;;4957702;28;20443;-70
2023/06/05 03:19:03;;;;;;;3.53;3.23;;;13.20;99.90;;;;;;4973778;28;20212;-70
2023/06/05 03:21:28;;;;;;;3.47;3.17;;;13.20;99.90;;;;;;4969164;28;20497;-70
2023/06/05 03:23:53;;;;;;;3.63;3.30;;;13.20;99.90;;;;;;4971502;28;20227;-70
2023/06/05 03:26:19;;;;;;;5.07;3.63;;;13.10;99.90;;;;;;4973234;28;20203;-70
2023/06/05 03:28:46;;;;;;;7.00;3.23;;;13.10;99.90;;;;;;4974071;28;20234;-70
2023/06/05 03:31:11;;;;;;;4.43;3.70;;;13.10;99.90;;;;;;4972975;28;20219;-70
2023/06/05 03:33:37;;;;;;;4.37;4.07;;;13.10;99.90;;;;;;4965048;28;20460;-70
2023/06/05 03:36:05;;;;;;;7.77;4.07;;;13.10;99.90;;;;;;4967342;28;20258;-70
2023/06/05 03:38:30;;;;;;;3.40;3.10;;;13.10;99.90;;;;;;4968517;28;20200;-70
2023/06/05 03:40:56;;;;;;;5.40;3.63;;;13.00;99.90;;;;;;4972983;28;21139;-71
2023/06/05 03:43:24;;;;;;;4.60;4.17;;;13.00;99.90;;;;;;4973851;28;20700;-68
2023/06/05 03:45:51;;;;;;;3.57;3.23;;;13.00;99.90;;;;;;4972427;28;20681;-70
2023/06/05 03:48:20;;;;;;;3.73;3.53;;;13.00;99.90;;;;;;4971502;28;20467;-70
2023/06/05 03:50:46;;;;;;;4.83;3.40;;;13.00;99.90;;;;;;4973434;28;20490;-71
2023/06/05 03:53:13;;;;;;;3.73;3.43;;;13.10;99.90;;;;;;4971403;28;20436;-70
2023/06/05 03:55:44;;;;;;;4.10;3.70;;;13.10;99.90;;;;;;4967550;28;20177;-69
2023/06/05 03:58:14;;;;;;;4.23;3.63;;;13.20;99.90;;;;;;4973367;28;20542;-69
2023/06/05 04:00:45;;;;;;;4.30;3.90;;;13.30;99.90;;;;;;4971234;28;20427;-69
2023/06/05 04:03:12;;;;;;;4.87;4.47;;;13.20;99.90;;;;;;4971638;28;20554;-69
2023/06/05 04:05:38;;;;;;;4.77;4.37;;;13.20;99.90;;;;;;4971376;28;20511;-69
2023/06/05 04:08:05;;;;;;;4.67;4.30;;;13.40;99.90;;;;;;4967595;28;20467;-69
2023/06/05 04:10:31;;;;;;;3.93;3.50;;;13.50;99.90;;;;;;4971120;28;21119;-69
2023/06/05 04:12:56;;;;;;;4.60;3.30;;;13.80;99.90;;;;;;4973385;28;20450;-69
2023/06/05 04:15:26;;;;;;;6.93;4.30;;;13.70;99.90;;;;;;4972418;28;20721;-69
2023/06/05 04:17:52;;;;;;;4.50;4.10;;;13.90;99.90;;;;;;4951189;28;20180;-69
2023/06/05 04:20:17;;;;;;;5.90;4.30;;;14.20;99.90;;;;;;4965223;28;20439;-69
2023/06/05 04:22:45;;;;;;;7.47;3.97;;;14.40;99.90;;;;;;4972064;28;20535;-70
2023/06/05 04:25:12;;;;;;;3.80;3.50;;;14.50;99.90;;;;;;4972737;28;20578;-69
2023/06/05 04:27:42;;;;;;;7.07;4.80;;;14.70;99.90;;;;;;4970701;28;20431;-69
2023/06/05 04:30:09;;;;;;;7.23;4.43;;;14.80;99.90;;;;;;4970582;28;20905;-70
2023/06/05 04:32:38;;;;;;;6.43;3.73;;;15.00;99.90;;;;;;4969557;28;20435;-69
2023/06/05 04:35:08;;;;;;;4.90;4.40;;;15.00;99.90;;;;;;4962456;28;20470;-69
2023/06/05 04:37:35;;;;;;;6.00;4.13;;;15.10;99.90;;;;;;4970738;28;20522;-69
2023/06/05 04:40:05;;;;;;;4.40;3.97;;;15.20;99.90;;;;;;4968287;28;20578;-69
2023/06/05 04:42:34;;;;;;;4.37;3.60;;;15.30;99.90;;;;;;4969132;28;20462;-69
2023/06/05 04:45:05;;;;;;;5.17;4.00;;;15.30;99.90;;;;;;4971626;28;20547;-70
2023/06/05 04:47:31;;;;;;;4.90;3.93;;;15.50;99.90;;;;;;4960484;28;20882;-69
2023/06/05 04:50:03;;;;;;;5.33;3.87;;;15.60;99.90;;;;;;4972396;28;20558;-69
2023/06/05 04:52:32;;;;;;;4.87;4.40;;;15.80;99.90;;;;;;4972900;28;20438;-69
2023/06/05 04:55:02;;;;;;;4.70;4.30;;;16.00;99.90;;;;;;4973312;28;20419;-69
2023/06/05 04:57:28;;;;;;;4.50;4.10;;;16.10;99.90;;;;;;4969242;28;20430;-69
2023/06/05 04:59:54;;;;;;;4.77;4.37;;;16.00;99.90;;;;;;4970608;28;20463;-69
2023/06/05 05:02:20;;;;;;;4.83;4.33;;;16.20;99.90;;;;;;4969940;28;20435;-69
2023/06/05 05:04:46;;;;;;;5.40;4.17;;;16.10;99.90;;;;;;4972643;28;20494;-69
2023/06/05 05:07:16;;;;;;;4.93;4.00;;;16.30;99.90;;;;;;4971691;28;20443;-69
2023/06/05 05:09:43;;;;;;;4.63;4.17;;;16.50;99.90;;;;;;4971607;28;20548;-69
2023/06/05 05:12:09;;;;;;;7.80;4.20;;;16.60;99.90;;;;;;4971738;28;20549;-69
2023/06/05 05:14:35;;;;;;;4.53;3.97;;;16.80;99.90;;;;;;4970865;28;20556;-69
2023/06/05 05:17:01;;;;;;;3.87;3.57;;;16.90;99.90;;;;;;4970975;28;21103;-69
2023/06/05 05:19:27;;;;;;;5.87;5.37;;;17.00;99.90;;;;;;4965150;28;20681;-69
2023/06/05 05:21:52;;;;;;;4.43;4.03;;;17.00;99.90;;;;;;4968943;28;20439;-69
2023/06/05 05:24:18;;;;;;;4.63;4.20;;;17.20;99.90;;;;;;4967738;28;20183;-69
2023/06/05 05:26:43;;;;;;;4.00;3.70;;;17.30;99.90;;;;;;4955220;28;20184;-69
2023/06/05 05:29:09;;;;;;;4.50;4.10;;;17.50;99.90;;;;;;4972746;28;20255;-68
2023/06/05 05:31:35;;;;;;;3.97;3.67;;;17.70;99.90;;;;;;4957027;28;20210;-69
2023/06/05 05:34:00;;;;;;;4.90;4.13;;;18.00;99.90;;;;;;4964622;28;20180;-69
2023/06/05 05:36:27;;;;;;;4.00;3.63;;;18.10;99.90;;;;;;4969108;28;20670;-68
2023/06/05 05:38:53;;;;;;;7.63;3.63;;;18.20;99.90;;;;;;4971320;28;20223;-68
2023/06/05 05:41:19;;;;;;;5.23;3.70;;;18.30;99.90;;;;;;4965477;28;20956;-68
2023/06/05 05:43:44;;;;;;;4.73;3.40;;;18.20;99.90;;;;;;4967962;28;20436;-68
2023/06/05 05:46:10;;;;;;;4.67;4.00;;;18.00;99.90;;;;;;4969257;28;20172;-68
2023/06/05 05:48:36;;;;;;;4.70;3.90;;;18.00;99.90;;;;;;4970419;28;20207;-68
2023/06/05 05:51:02;;;;;;;4.00;3.70;;;18.00;99.90;;;;;;4972223;28;20208;-68
2023/06/05 05:53:27;;;;;;;6.57;4.23;;;18.20;99.90;;;;;;4970218;28;20547;-70
2023/06/05 05:55:53;;;;;;;5.93;4.20;;;18.40;99.90;;;;;;4965764;28;20206;-70
2023/06/05 05:58:19;;;;;;;4.33;3.93;;;18.50;99.90;;;;;;4966274;28;20200;-70
2023/06/05 06:00:45;;;;;;;4.80;4.17;;;18.80;99.90;;;;;;4972757;28;20591;-70
2023/06/05 06:03:11;;;;;;;4.20;3.50;;;19.00;99.90;;;;;;4966293;28;20222;-69
2023/06/05 06:05:37;;;;;;;5.67;4.03;;;19.10;99.90;;;;;;4971536;28;20188;-69
2023/06/05 06:08:03;;;;;;;6.70;3.80;;;19.30;99.90;;;;;;4968285;28;20530;-68
2023/06/05 06:10:30;;;;;;;4.70;4.20;;;19.30;99.90;;;;;;4971464;28;20513;-69
2023/06/05 06:12:56;;;;;;;4.37;3.97;;;19.50;99.50;;;;;;4971646;28;20940;-68
2023/06/05 06:15:22;;;;;;;3.70;3.37;;;19.70;98.70;;;;;;4972609;28;20420;-68
2023/06/05 06:17:47;;;;;;;6.87;4.30;;;19.70;98.10;;;;;;4961520;28;20986;-68
2023/06/05 06:20:15;;;;;;;4.80;4.03;;;19.80;97.20;;;;;;4964270;28;20810;-68
2023/06/05 06:22:44;;;;;;;6.07;4.07;;;19.80;96.90;;;;;;4973618;28;20594;-68
2023/06/05 06:25:12;;;;;;;4.73;4.20;;;19.90;96.60;;;;;;4976215;28;20423;-68
2023/06/05 06:27:38;;;;;;;10.30;4.30;;;20.00;95.80;;;;;;4976388;28;20950;-68
2023/06/05 06:30:04;;;;;;;6.30;4.13;;;20.10;95.50;;;;;;4975965;28;20467;-68
2023/06/05 06:32:30;;;;;;;3.93;3.60;;;20.10;95.20;;;;;;4974530;28;20498;-71
2023/06/05 06:34:56;;;;;;;5.80;4.27;;;20.30;95.20;;;;;;4975006;28;20435;-71
2023/06/05 06:37:22;;;;;;;5.97;3.70;;;20.30;94.80;;;;;;4962617;28;20499;-71
2023/06/05 06:39:48;;;;;;;4.37;4.07;;;20.40;94.50;;;;;;4964086;28;20538;-71
2023/06/05 06:42:14;;;;;;;4.63;4.20;;;20.30;94.80;;;;;;4956872;29;20181;-71
2023/06/05 06:44:40;;;;;;;4.37;3.97;;;20.50;94.30;;;;;;4955394;28;20428;-71
2023/06/05 06:47:07;;;;;;;8.60;4.67;;;20.60;93.60;;;;;;4967469;28;20193;-71
2023/06/05 06:49:34;;;;;;;9.83;4.40;;;20.80;93.50;;;;;;4969052;28;20206;-71
2023/06/05 06:52:00;;;;;;;5.13;4.60;;;21.00;93.00;;;;;;4975809;28;20424;-71
2023/06/05 06:54:26;;;;;;;4.50;3.60;;;21.30;92.60;;;;;;4975737;28;20426;-71
2023/06/05 06:56:52;;;;;;;4.30;3.90;;;21.20;92.20;;;;;;4975904;28;20680;-71
2023/06/05 06:59:17;;;;;;;6.20;4.50;;;21.20;92.50;;;;;;4975482;28;20436;-71
2023/06/05 07:01:48;;;;;;;5.80;5.03;;;21.30;91.60;;;;;;4974221;28;20666;-71
2023/06/05 07:04:16;;;;;;;5.70;4.40;;;21.30;91.50;;;;;;4975587;28;20180;-71
2023/06/05 07:06:46;;;;;;;5.43;4.30;;;21.50;91.20;;;;;;4975746;28;20424;-71
2023/06/05 07:09:12;;;;;;;5.70;4.27;;;21.40;91.20;;;;;;4975178;28;20460;-71
2023/06/05 07:11:37;;;;;;;5.10;4.70;;;21.60;91.00;;;;;;4975768;28;20477;-71
2023/06/05 07:14:03;;;;;;;5.20;4.70;;;21.60;91.00;;;;;;4975522;28;20177;-71
2023/06/05 07:16:29;;;;;;;5.40;4.90;;;21.70;90.90;;;;;;4974827;28;20680;-71
2023/06/05 07:18:55;;;;;;;6.00;4.50;;;21.80;90.50;;;;;;4974777;28;20673;-71
2023/06/05 07:21:21;;;;;;;6.17;4.60;;;21.90;89.70;;;;;;4975362;28;20259;-71
2023/06/05 07:23:53;;;;;;;6.83;5.30;;;22.00;88.90;;;;;;4975187;28;20427;-71
2023/06/05 07:26:20;;;;;;;6.60;4.97;;;22.20;87.80;;;;;;4975270;28;20443;-72
2023/06/05 07:28:46;;;;;;;7.70;4.30;;;22.30;87.40;;;;;;4974874;28;20940;-71
2023/06/05 07:31:13;;;;;;;7.33;4.37;;;22.60;86.70;;;;;;4973502;28;20447;-71
2023/06/05 07:33:38;;;;;;;6.23;4.77;;;22.60;86.00;;;;;;4974558;28;20917;-71
2023/06/05 07:36:04;;;;;;;6.47;4.53;;;22.80;84.80;;;;;;4974170;28;20408;-72
2023/06/05 07:38:29;;;;;;;5.53;4.47;;;22.80;84.80;;;;;;4974833;28;20288;-71
2023/06/05 07:40:58;;;;;;;6.37;5.77;;;22.90;84.00;;;;;;4974918;28;20177;-71
2023/06/05 07:43:27;;;;;;;5.10;4.70;;;22.90;83.90;;;;;;4974920;28;20164;-71
2023/06/05 07:45:52;;;;;;;5.53;5.03;;;23.00;84.60;;;;;;4965055;28;20432;-71
2023/06/05 07:48:18;;;;;;;6.73;5.40;;;23.30;84.40;;;;;;4973016;28;20450;-71
2023/06/05 07:50:43;;;;;;;5.47;5.07;;;23.40;84.10;;;;;;4974646;28;20196;-71
2023/06/05 07:53:09;;;;;;;5.83;5.23;;;23.30;83.20;;;;;;4974698;28;20184;-71
2023/06/05 07:55:35;;;;;;;6.70;5.10;;;23.30;83.50;;;;;;4974687;28;20176;-71
2023/06/05 07:58:00;;;;;;;5.47;4.80;;;23.50;83.20;;;;;;4969678;28;20177;-71
2023/06/05 08:00:29;;;;;;;7.30;6.50;;;23.80;83.40;;;;;;4965380;28;20446;-71
2023/06/05 08:02:57;;;;;;;7.70;5.17;;;23.50;83.10;;;;;;4968429;28;20443;-71
2023/06/05 08:05:22;;;;;;;7.20;4.60;;;23.60;84.00;;;;;;4957110;28;20420;-72
2023/06/05 08:07:48;;;;;;;9.93;5.20;;;23.90;82.80;;;;;;4968723;28;20804;-72
2023/06/05 08:10:13;;;;;;;6.63;5.60;;;24.10;82.80;;;;;;4958155;28;20204;-71
2023/06/05 08:12:40;;;;;;;5.90;5.50;;;24.10;82.70;;;;;;4941712;28;20180;-72
2023/06/05 08:15:06;;;;;;;5.27;4.87;;;23.90;83.40;;;;;;4973955;28;20203;-72
2023/06/05 08:17:32;;;;;;;5.93;5.43;;;23.80;85.20;;;;;;4972632;28;20412;-73
2023/06/05 08:19:57;;;;;;;8.00;5.20;;;24.00;86.00;;;;;;4967593;28;20482;-73
2023/06/05 08:22:23;;;;;;;6.03;5.43;;;24.10;87.90;;;;;;4966214;28;20176;-74
2023/06/05 08:24:50;;;;;;;9.30;5.80;;;24.30;87.20;;;;;;4974175;28;20184;-72
2023/06/05 08:27:17;;;;;;;6.57;6.00;;;24.70;86.10;;;;;;4956265;28;20291;-73
2023/06/05 08:29:42;;;;;;;5.97;5.47;;;25.00;85.10;;;;;;4973428;28;21038;-72
2023/06/05 08:32:08;;;;;;;8.77;5.77;;;25.10;85.00;;;;;;4972850;28;20435;-72
2023/06/05 08:34:35;;;;;;;6.33;5.80;;;25.30;83.60;;;;;;4972430;28;20198;-72
2023/06/05 08:37:02;;;;;;;6.40;5.53;;;25.30;83.90;;;;;;4964992;28;20176;-73
2023/06/05 08:39:31;;;;;;;6.10;5.50;;;25.30;84.40;;;;;;4973593;28;20451;-71
2023/06/05 08:42:00;;;;;;;6.07;5.57;;;25.40;84.50;;;;;;4973946;28;20807;-73
2023/06/05 08:44:27;;;;;;;6.83;6.10;;;25.60;83.60;;;;;;4973651;28;20428;-71
2023/06/05 08:46:59;;;;;;;7.30;6.53;;;25.70;83.90;;;;;;4972406;28;20478;-72
2023/06/05 08:49:29;;;;;;;7.53;6.10;;;25.70;83.40;;;;;;4965746;28;20522;-72
2023/06/05 08:52:02;;;;;;;7.77;7.10;;;25.60;84.80;;;;;;4973584;28;20443;-72
2023/06/05 08:54:33;;;;;;;8.50;7.77;;;25.90;84.50;;;;;;4973427;28;20430;-72
2023/06/05 08:57:00;;;;;;;8.00;6.90;;;26.20;84.00;;;;;;4964637;28;20826;-72
2023/06/05 08:59:26;;;;;;;6.73;6.13;;;26.40;82.70;;;;;;4972814;28;20957;-71
2023/06/05 09:01:51;;;;;;;7.07;5.70;;;26.50;82.30;;;;;;4973391;28;20416;-71
2023/06/05 09:04:17;;;;;;;14.57;6.60;;;26.70;82.40;;;;;;4971773;28;20442;-72
2023/06/05 09:06:47;;;;;;;8.87;7.00;;;26.80;81.50;;;;;;4973217;28;20187;-71
2023/06/05 09:09:15;;;;;;;7.30;6.80;;;26.90;80.60;;;;;;4972906;28;20254;-71
2023/06/05 09:11:40;;;;;;;7.97;7.17;;;26.90;82.70;;;;;;4973022;28;20425;-72
2023/06/05 09:14:06;;;;;;;12.67;7.70;;;27.20;81.80;;;;;;4972806;28;20814;-72
2023/06/05 09:16:43;;;;;;;7.57;6.77;;;27.30;80.30;;;;;;4973168;28;20180;-71
2023/06/05 09:19:11;;;;;;;7.43;6.73;;;27.40;80.80;;;;;;4972817;28;20215;-72
2023/06/05 09:21:36;;;;;;;9.50;7.87;;;27.30;81.30;;;;;;4971533;28;20466;-71
2023/06/05 09:24:15;;;;;;;6.67;6.07;;;27.40;81.10;;;;;;4973034;28;20451;-72
2023/06/05 09:26:46;;;;;;;10.80;7.07;;;27.70;80.30;;;;;;4973071;28;20173;-72
2023/06/05 09:29:12;;;;;;;6.40;5.90;;;28.00;79.90;;;;;;4972535;28;20524;-73
2023/06/05 09:31:44;;;;;;;7.07;6.50;;;28.30;78.40;;;;;;4972968;28;20451;-72
2023/06/05 09:34:09;;;;;;;9.70;6.70;;;28.50;77.10;;;;;;4970201;28;20218;-73
2023/06/05 09:36:45;;;;;;;9.10;6.80;;;28.60;76.40;;;;;;4967204;28;20490;-70
2023/06/05 09:39:18;;;;;;;7.43;6.73;;;28.80;75.40;;;;;;4964886;28;20238;-72
2023/06/05 09:41:48;;;;;;;6.87;6.17;;;28.80;74.60;;;;;;4961756;28;20424;-74
2023/06/05 09:44:14;;;;;;;10.40;6.60;;;28.70;73.90;;;;;;4955399;28;20460;-73
2023/06/05 09:46:58;;;;;;;10.03;6.50;;;28.70;74.50;;;;;;4972835;28;20470;-73
2023/06/05 09:49:43;;;;;;;6.90;6.40;;;28.80;72.90;;;;;;4972005;28;20491;-74
2023/06/05 09:52:11;;;;;;;11.57;7.03;;;28.90;72.40;;;;;;4966941;28;20436;-74
2023/06/05 09:54:44;;;;;;;7.13;6.53;;;29.00;72.70;;;;;;4964008;28;20436;-72
2023/06/05 09:57:12;;;;;;;8.10;7.30;;;29.20;72.20;;;;;;4972865;28;20423;-72
2023/06/05 10:00:01;;;;;;;10.70;6.80;;;29.50;71.90;;;;;;4976416;28;20435;-74
2023/06/05 10:02:33;;;;;;;6.73;6.27;;;29.40;71.80;;;;;;4976497;28;20463;-71
2023/06/05 10:05:04;;;;;;;7.03;6.33;;;29.90;70.00;;;;;;4959345;28;20446;-70
2023/06/05 10:07:35;;;;;;;7.10;6.40;;;30.20;69.20;;;;;;4975246;28;20447;-70
2023/06/05 10:10:01;;;;;;;6.97;6.47;;;29.40;69.00;;;;;;4968060;28;20518;-70
2023/06/05 10:12:27;;;;;;;9.30;6.73;;;28.80;70.10;;;;;;4975789;28;20424;-70
2023/06/05 10:14:54;;;;;;;8.30;6.57;;;29.30;69.60;;;;;;4976324;28;20821;-70
2023/06/05 10:17:21;;;;;;;6.93;6.43;;;30.80;68.40;;;;;;4976187;28;20463;-70
2023/06/05 10:19:47;;;;;;;10.60;7.00;;;32.20;63.40;;;;;;4975829;28;20557;-70
2023/06/05 10:22:13;;;;;;;10.10;6.87;;;32.40;62.40;;;;;;4976201;28;20474;-70
2023/06/05 10:24:52;;;;;;;7.27;6.80;;;32.40;60.50;;;;;;4974437;28;20203;-70
2023/06/05 10:27:45;;;;;;;6.80;6.40;;;32.60;59.90;;;;;;4968124;28;20967;-70
2023/06/05 10:30:49;;;;;;;12.63;6.70;;;32.40;58.90;;;;;;4975701;28;20534;-70
2023/06/05 10:33:46;;;;;;;6.53;6.03;;;33.00;57.80;;;;;;4976096;28;20533;-69
2023/06/05 10:36:50;;;;;;;6.37;5.97;;;31.70;58.20;;;;;;4976088;28;20420;-70
2023/06/05 10:39:17;;;;;;;7.10;6.07;;;31.80;57.20;;;;;;4970930;28;20478;-70
2023/06/05 10:41:43;;;;;;;7.20;6.60;;;31.50;57.40;;;;;;4975927;28;20510;-70
2023/06/05 10:44:09;;;;;;;6.20;5.70;;;32.70;56.20;;;;;;4975928;28;20522;-70
2023/06/05 10:46:37;;;;;;;7.33;6.73;;;33.30;53.60;;;;;;4967000;28;20192;-70
2023/06/05 10:49:17;;;;;;;6.50;5.90;;;33.00;53.80;;;;;;4956048;28;20448;-70
2023/06/05 10:51:47;;;;;;;6.57;5.97;;;32.70;54.60;;;;;;4956377;28;20443;-71
2023/06/05 10:54:22;;;;;;;6.40;5.80;;;34.20;52.80;;;;;;4959049;28;20443;-70
2023/06/05 10:56:51;;;;;;;5.53;5.07;;;35.60;48.50;;;;;;4975474;28;20934;-68
2023/06/05 10:59:17;;;;;;;6.47;5.33;;;37.00;43.20;;;;;;4975224;28;20471;-70
2023/06/05 11:01:43;;;;;;;5.83;5.33;;;36.50;41.20;;;;;;4975563;28;20455;-70
2023/06/05 11:04:09;;;;;;;6.10;5.60;;;36.50;41.20;;;;;;4975482;28;20458;-70
2023/06/05 11:06:37;;;;;;;5.87;5.43;;;37.20;39.80;;;;;;4975438;28;20183;-71
2023/06/05 11:09:08;;;;;;;6.40;5.80;;;38.20;37.70;;;;;;4974972;28;20202;-70
2023/06/05 11:11:57;;;;;;;5.93;5.33;;;38.10;35.60;;;;;;4968909;28;20801;-70
2023/06/05 11:14:23;;;;;;;6.03;5.60;;;38.60;35.30;;;;;;4967724;28;20839;-70
2023/06/05 11:16:48;;;;;;;5.30;5.00;;;39.50;29.90;;;;;;4974215;28;20734;-68
2023/06/05 11:19:20;;;;;;;5.27;4.87;;;39.90;29.00;;;;;;4990444;23;20585;-70
2023/06/05 11:22:09;;;;;;;5.40;5.00;;;38.90;28.40;;;;;;4975083;28;20176;-70
2023/06/05 11:24:36;;;;;;;5.73;5.33;;;37.20;29.10;;;;;;4975215;28;20419;-70
2023/06/05 11:27:03;;;;;;;5.90;5.33;;;35.20;30.00;;;;;;4974469;28;20845;-70
2023/06/05 11:29:29;;;;;;;5.50;5.10;;;34.70;30.80;;;;;;4978122;28;20473;-70
2023/06/05 11:31:55;;;;;;;5.40;5.00;;;35.10;30.40;;;;;;4994295;28;20522;-70
2023/06/05 11:34:20;;;;;;;5.83;5.27;;;34.90;30.30;;;;;;4979754;28;20544;-70
2023/06/05 11:36:47;;;;;;;5.53;5.13;;;35.90;29.90;;;;;;4977035;28;20187;-70
2023/06/05 11:39:13;;;;;;;5.87;5.37;;;37.00;29.20;;;;;;4994046;28;20187;-71
2023/06/05 11:41:52;;;;;;;5.57;5.07;;;38.00;28.80;;;;;;4993245;28;20434;-71
2023/06/05 11:44:32;;;;;;;5.67;5.33;;;39.30;28.00;;;;;;4986678;28;20439;-71
2023/06/05 11:46:57;;;;;;;6.00;5.10;;;40.20;32.10;;;;;;4984455;28;20419;-71
2023/06/05 11:49:25;;;;;;;4.97;4.57;;;40.90;31.20;;;;;;4984351;28;20463;-71
2023/06/05 11:51:51;;;;;;;6.33;5.83;;;41.50;30.00;;;;;;4981707;28;20188;-71
2023/06/05 11:54:39;;;;;;;5.90;5.40;;;41.50;30.60;;;;;;4992946;28;20473;-71
2023/06/05 11:57:08;;;;;;;5.90;5.50;;;42.30;30.10;;;;;;4994233;28;20180;-71
2023/06/05 11:59:36;;;;;;;5.73;5.23;;;43.00;29.40;;;;;;4992087;28;20906;-71
2023/06/05 12:02:03;;;;;;;5.53;5.13;;;42.70;29.20;;;;;;4993751;28;20427;-71
2023/06/05 12:04:29;;;;;;;5.73;4.50;;;42.90;29.30;;;;;;4993992;28;20778;-70
2023/06/05 12:06:55;;;;;;;4.87;4.27;;;41.90;29.90;;;;;;4993933;28;20998;-70
2023/06/05 12:09:21;;;;;;;5.37;4.80;;;41.60;29.50;;;;;;4993495;28;20454;-71
2023/06/05 12:11:48;;;;;;;5.90;5.40;;;41.20;29.20;;;;;;4993134;28;20490;-71
2023/06/05 12:14:29;;;;;;;5.67;5.10;;;40.20;29.50;;;;;;4985856;28;20696;-71
2023/06/05 12:16:54;;;;;;;5.30;5.00;;;38.50;30.40;;;;;;4993583;28;20497;-71
2023/06/05 12:19:20;;;;;;;5.30;4.90;;;36.90;30.40;;;;;;4993077;28;20544;-70
2023/06/05 12:21:47;;;;;;;4.77;4.40;;;36.00;31.80;;;;;;4975467;28;20180;-70
2023/06/05 12:24:13;;;;;;;5.23;4.53;;;36.30;31.10;;;;;;4993396;28;20182;-71
2023/06/05 12:26:55;;;;;;;5.30;4.77;;;37.80;31.40;;;;;;4993483;28;20419;-71
2023/06/05 12:29:22;;;;;;;5.90;5.30;;;39.20;30.80;;;;;;4992072;28;20474;-71
2023/06/05 12:31:48;;;;;;;5.30;4.80;;;38.80;30.00;;;;;;4993220;28;20426;-71
2023/06/05 12:34:15;;;;;;;5.53;5.03;;;38.70;30.80;;;;;;4993337;28;20952;-71
2023/06/05 12:36:42;;;;;;;4.83;4.50;;;40.80;29.50;;;;;;4993363;28;20419;-71
2023/06/05 12:39:10;;;;;;;5.97;5.37;;;40.60;28.80;;;;;;4992739;28;20443;-70
2023/06/05 12:41:36;;;;;;;6.70;5.60;;;38.50;29.10;;;;;;4993178;28;20435;-70
2023/06/05 12:44:04;;;;;;;5.90;5.50;;;36.20;30.10;;;;;;4990795;28;20486;-70
2023/06/05 12:46:33;;;;;;;5.53;5.10;;;34.30;31.80;;;;;;4986314;28;20171;-70
2023/06/05 12:48:59;;;;;;;5.23;4.87;;;33.40;32.80;;;;;;4992783;28;20449;-70
2023/06/05 12:51:26;;;;;;;5.83;5.10;;;34.60;32.90;;;;;;4993096;28;20826;-70